Terminal Aerodrome Forecast
Issued by NWS Twin Cities, MN

Home | Current Version | Previous Version | Text Only | Print | Product List | Glossary On
Versions: 1 2 3 4 5 6 7 8 9 10 11 12 13 14 15 16 17 18 19 20 21 22 23 24 25 26
000
FTUS43 KMPX 061449 AAA
TAFMSP
TAF AMD
KMSP 061449Z 0615/0718 27008KT P6SM VCSH OVC008
     FM061600 34015G22KT 6SM -SHRA SCT007 OVC015
     FM062000 34014G21KT P6SM SCT030 BKN100
     FM070300 33008KT P6SM SKC=

USA.gov is the U.S. government's official web portal to all federal, state and local government web resources and services.